SAAC/COC METAR and TAF weather

Enter ICAO airport designator
Station Type Date Time Source
SAAC METAR 2021/05/16 10:30 UTC NOAA

SAAC 161030Z 18002KT 2000 BR FEW006 BKN200 10/09 Q1019


Station Type Date Time Source
SAAC Decoded METAR 2021/05/16 10:30 UTC NOAA

Concordia Aerodrome, Argentina (SAAC) 31-18S 058-01W 38M
May 16, 2021 - 06:30 AM EDT / 2021.05.16 1030 UTC
Wind: from the S (180 degrees) at 2 MPH (2 KT):0
Visibility: 1 mile(s):0
Sky conditions: mostly cloudy
Weather: mist
Temperature: 50 F (10 C)
Dew Point: 48 F (9 C)
Relative Humidity: 93%
Pressure (altimeter): 30.09 in. Hg (1019 hPa)
ob: SAAC 161030Z 18002KT 2000 BR FEW006 BKN200 10/09 Q1019
cycle: 10

Station Type Date Time Source
SAAC TAF UTC NOAA

Error!

Example: see airport list